Terminal Aerodrome Forecast
Issued by NWS

Home | Current Version | Previous Version | Graphics & Text | Print | Product List | Glossary On
Versions: 1 2 3 4 5 6 7 8 9 10 11 12 13
000
FTUS43 KGRB 041720
TAFCWA
TAF
KCWA 041720Z 0418/0518 34013G22KT P6SM SCT045
      TEMPO 0418/0422 BKN045
     FM042300 35012G18KT P6SM SCT060
     FM050100 35008KT P6SM SKC
     FM050700 33004KT P6SM SKC
     FM051600 29008KT P6SM SCT250=

USA.gov is the U.S. government's official web portal to all federal, state and local government web resources and services.